Time;durP1;ratioP1;P1;durP2;ratioP2;P2;SDS_P1;SDS_P2;PMS_P1;PMS_P2;Temp;Humidity;BMP_temperature;BMP_pressure;BME280_temperature;BME280_humidity;BME280_pressure;Samples;Min_cycle;Max_cycle;Signal;HPM_P1;HPM_P2
2022/04/26 03:37:12;;;;;;;4.30;3.90;;;19.50;54.20;;;;;;5052475;28;20166;-72
2022/04/26 03:39:39;;;;;;;3.25;3.05;;;19.50;54.20;;;;;;5068173;28;20218;-72
2022/04/26 03:42:06;;;;;;;3.40;3.10;;;19.50;54.20;;;;;;5068062;28;20201;-72
2022/04/26 03:44:32;;;;;;;2.92;2.65;;;19.50;54.10;;;;;;5067693;28;20186;-71
2022/04/26 03:46:58;;;;;;;2.90;2.63;;;19.50;54.20;;;;;;5050923;28;20186;-72
2022/04/26 03:49:24;;;;;;;2.92;2.63;;;19.50;54.20;;;;;;5067779;28;20186;-71
2022/04/26 03:51:54;;;;;;;2.83;2.63;;;19.50;54.20;;;;;;5052257;28;20238;-72
2022/04/26 03:54:21;;;;;;;2.85;2.65;;;19.50;54.20;;;;;;5068092;28;20170;-72
2022/04/26 03:56:48;;;;;;;2.85;2.58;;;19.50;54.20;;;;;;5067511;28;20183;-71
2022/04/26 03:59:15;;;;;;;2.70;2.50;;;19.50;54.20;;;;;;5050828;28;20653;-72
2022/04/26 04:01:41;;;;;;;3.05;2.60;;;19.50;54.20;;;;;;5050854;28;20240;-72
2022/04/26 04:04:07;;;;;;;2.92;2.72;;;19.50;54.20;;;;;;5052237;28;20178;-72
2022/04/26 04:06:32;;;;;;;2.97;2.70;;;19.50;54.20;;;;;;5067467;28;20182;-72
2022/04/26 04:08:58;;;;;;;3.35;2.53;;;19.50;54.20;;;;;;5051135;28;20564;-74
2022/04/26 04:11:24;;;;;;;2.58;2.38;;;19.50;54.20;;;;;;5052030;28;20210;-72
2022/04/26 04:13:50;;;;;;;2.72;2.53;;;19.50;54.20;;;;;;5052064;28;20327;-72
2022/04/26 04:16:16;;;;;;;3.08;2.83;;;19.50;54.20;;;;;;5067404;28;20186;-71
2022/04/26 04:21:27;;;;;;;3.70;3.40;;;19.50;54.20;;;;;;5067376;28;20313;-71
2022/04/26 04:23:52;;;;;;;3.55;3.25;;;19.50;54.20;;;;;;5067375;28;20273;-72
2022/04/26 04:26:18;;;;;;;3.70;3.40;;;19.50;54.20;;;;;;5050364;28;20178;-72
2022/04/26 04:28:44;;;;;;;3.55;3.10;;;19.50;54.20;;;;;;5050613;28;20190;-73
2022/04/26 04:31:10;;;;;;;3.00;2.67;;;19.50;54.20;;;;;;5067032;28;20700;-73
2022/04/26 04:33:39;;;;;;;3.28;2.97;;;19.50;54.20;;;;;;5051299;28;20183;-73
2022/04/26 04:36:06;;;;;;;2.72;2.53;;;19.50;54.10;;;;;;5066758;28;20186;-76
2022/04/26 04:38:32;;;;;;;3.42;2.47;;;19.50;54.20;;;;;;5067494;28;20191;-73
2022/04/26 04:40:58;;;;;;;2.65;2.45;;;19.50;54.20;;;;;;5050746;28;20297;-73
2022/04/26 04:43:24;;;;;;;2.47;2.28;;;19.50;54.20;;;;;;5050498;28;20189;-73
2022/04/26 04:45:50;;;;;;;2.63;2.42;;;19.50;54.20;;;;;;5067189;28;20171;-72
2022/04/26 04:48:17;;;;;;;3.58;2.60;;;19.50;54.20;;;;;;5067299;28;20233;-73
2022/04/26 04:50:43;;;;;;;2.90;2.60;;;19.50;54.20;;;;;;5050846;28;20202;-72
2022/04/26 04:53:09;;;;;;;2.47;2.28;;;19.50;54.20;;;;;;5050825;28;20174;-72
2022/04/26 04:55:35;;;;;;;2.70;2.50;;;19.50;54.20;;;;;;5051228;28;20198;-71
2022/04/26 04:58:01;;;;;;;2.50;2.30;;;19.50;54.20;;;;;;5052747;28;20182;-71
2022/04/26 05:02:58;;;;;;;3.03;2.75;;;19.50;54.20;;;;;;5051500;28;20217;-71
2022/04/26 05:05:24;;;;;;;3.60;3.30;;;19.50;54.20;;;;;;5036558;28;20186;-70
2022/04/26 05:07:50;;;;;;;3.10;2.80;;;19.50;54.20;;;;;;5036846;28;20182;-71
2022/04/26 05:10:16;;;;;;;2.80;2.45;;;19.40;54.10;;;;;;5053486;28;20198;-71
2022/04/26 05:12:42;;;;;;;3.25;3.05;;;19.50;54.20;;;;;;5054456;28;20256;-71
2022/04/26 05:15:08;;;;;;;3.17;2.92;;;19.50;54.20;;;;;;5069119;28;20186;-70
2022/04/26 05:17:34;;;;;;;2.97;2.78;;;19.50;54.20;;;;;;5053358;28;20189;-70
2022/04/26 05:20:06;;;;;;;2.53;2.30;;;19.50;54.20;;;;;;5054332;28;20210;-71
2022/04/26 05:24:53;;;;;;;3.00;2.70;;;19.50;54.20;;;;;;5069925;28;20312;-71
2022/04/26 05:25:17;;;;;;;2.78;2.58;;;19.50;54.20;;;;;;5054340;28;20229;-71
2022/04/26 05:27:43;;;;;;;2.63;2.42;;;19.50;54.20;;;;;;5068825;28;20210;-71
2022/04/26 05:30:09;;;;;;;2.60;2.40;;;19.50;54.20;;;;;;5058012;28;20185;-71
2022/04/26 05:32:36;;;;;;;2.50;2.30;;;19.50;54.20;;;;;;5074127;28;20208;-71
2022/04/26 05:35:03;;;;;;;2.40;2.20;;;19.50;54.20;;;;;;5072717;28;20182;-71
2022/04/26 05:37:33;;;;;;;2.42;2.22;;;19.50;54.20;;;;;;5089746;28;20273;-71
2022/04/26 05:40:03;;;;;;;3.03;2.80;;;19.50;54.20;;;;;;5089951;28;20215;-71
2022/04/26 05:42:37;;;;;;;3.30;2.70;;;19.50;54.80;;;;;;5072857;28;20304;-70
2022/04/26 05:45:03;;;;;;;2.40;2.25;;;19.50;54.20;;;;;;5056009;28;20190;-71
2022/04/26 05:47:29;;;;;;;2.80;2.45;;;19.50;54.20;;;;;;5089700;28;20177;-71
2022/04/26 05:49:56;;;;;;;2.75;2.30;;;19.50;54.20;;;;;;5089665;28;20212;-70
2022/04/26 05:52:24;;;;;;;2.50;2.30;;;19.50;54.20;;;;;;5072621;28;20304;-70
2022/04/26 05:54:51;;;;;;;2.67;2.47;;;19.50;54.20;;;;;;5073710;28;20189;-71
2022/04/26 05:57:18;;;;;;;3.17;2.45;;;19.50;54.20;;;;;;5072669;28;20284;-71
2022/04/26 05:59:44;;;;;;;3.30;2.42;;;19.50;54.20;;;;;;5072517;28;20232;-70
2022/04/26 06:02:10;;;;;;;2.53;2.33;;;19.50;54.20;;;;;;5089247;28;20213;-71
2022/04/26 06:04:38;;;;;;;2.17;2.00;;;19.50;54.20;;;;;;5089501;28;20190;-71
2022/04/26 06:07:04;;;;;;;2.63;2.42;;;19.50;54.20;;;;;;5072015;28;20185;-71
2022/04/26 06:09:31;;;;;;;2.00;1.90;;;19.50;54.20;;;;;;5071012;28;20180;-71
2022/04/26 06:11:58;;;;;;;2.45;2.25;;;19.50;54.20;;;;;;5060227;28;20199;-71
2022/04/26 06:14:24;;;;;;;2.30;2.10;;;19.50;54.20;;;;;;5032303;28;20179;-71
2022/04/26 06:16:49;;;;;;;3.45;2.28;;;19.50;54.20;;;;;;5032088;28;20187;-71
2022/04/26 06:19:15;;;;;;;2.42;2.22;;;19.50;54.80;;;;;;5032277;28;20725;-71
2022/04/26 06:21:42;;;;;;;2.38;2.17;;;19.50;54.20;;;;;;5034787;28;20724;-71
2022/04/26 06:24:08;;;;;;;2.50;2.25;;;19.50;54.20;;;;;;5052055;28;20228;-71
2022/04/26 06:26:34;;;;;;;2.92;2.60;;;19.50;54.80;;;;;;5052976;28;20182;-71
2022/04/26 06:28:59;;;;;;;2.47;2.28;;;19.50;54.20;;;;;;5051901;28;20193;-71
2022/04/26 06:31:25;;;;;;;2.40;2.20;;;19.50;54.20;;;;;;5051860;28;20210;-71
2022/04/26 06:33:51;;;;;;;2.30;2.10;;;19.50;54.20;;;;;;5053131;28;20736;-71
2022/04/26 06:36:17;;;;;;;2.67;2.20;;;19.50;54.20;;;;;;5051777;28;20237;-71
2022/04/26 06:38:42;;;;;;;2.30;2.10;;;19.50;54.20;;;;;;5051849;28;20217;-71
2022/04/26 06:41:08;;;;;;;2.30;2.10;;;19.50;54.20;;;;;;5068049;28;20250;-71
2022/04/26 06:43:36;;;;;;;3.05;1.92;;;19.50;54.20;;;;;;5051468;28;20244;-70
2022/04/26 06:46:02;;;;;;;2.60;2.40;;;19.50;54.30;;;;;;5068142;28;20259;-71
2022/04/26 06:48:27;;;;;;;2.83;2.40;;;19.50;54.20;;;;;;5051560;28;20187;-70
2022/04/26 06:50:57;;;;;;;2.38;2.17;;;19.50;54.20;;;;;;5051526;28;20206;-71
2022/04/26 06:53:22;;;;;;;2.13;2.00;;;19.50;54.20;;;;;;5034939;28;20217;-71
2022/04/26 06:55:48;;;;;;;2.75;2.40;;;19.60;54.30;;;;;;5051225;28;20214;-71
2022/04/26 06:58:15;;;;;;;3.70;2.08;;;19.50;54.20;;;;;;5051694;28;20241;-71
2022/04/26 07:00:41;;;;;;;2.78;2.53;;;19.50;54.20;;;;;;5051074;28;20265;-71
2022/04/26 07:03:07;;;;;;;2.42;2.22;;;19.50;54.80;;;;;;5068047;28;20194;-71
2022/04/26 07:05:32;;;;;;;1.90;1.80;;;19.50;54.80;;;;;;5051220;28;20221;-71
2022/04/26 07:07:58;;;;;;;2.17;1.98;;;19.50;54.20;;;;;;5068070;28;20183;-71
2022/04/26 07:10:24;;;;;;;1.70;1.60;;;19.50;54.20;;;;;;5067612;28;20186;-71
2022/04/26 07:12:50;;;;;;;2.60;2.40;;;19.50;54.20;;;;;;5067823;28;20222;-71
2022/04/26 07:15:16;;;;;;;2.10;2.00;;;19.50;54.20;;;;;;5067809;28;20229;-71
2022/04/26 07:17:43;;;;;;;2.30;2.10;;;19.50;54.20;;;;;;5067627;28;20285;-71
2022/04/26 07:20:09;;;;;;;2.47;2.28;;;19.50;54.20;;;;;;5050543;28;20704;-71
2022/04/26 07:22:36;;;;;;;2.15;1.95;;;19.50;54.20;;;;;;5067742;28;20305;-71
2022/04/26 07:25:05;;;;;;;2.20;2.00;;;19.50;54.20;;;;;;5067293;28;20677;-71
2022/04/26 07:27:31;;;;;;;3.33;1.80;;;19.50;54.30;;;;;;5050779;28;20186;-71
2022/04/26 07:29:57;;;;;;;2.35;2.08;;;19.50;54.20;;;;;;5050918;28;20222;-71
2022/04/26 07:35:12;;;;;;;2.35;2.15;;;19.50;54.20;;;;;;5051602;28;20205;-71
2022/04/26 07:37:39;;;;;;;2.20;2.00;;;19.50;54.20;;;;;;5050698;28;20183;-71
2022/04/26 07:40:07;;;;;;;2.78;2.42;;;19.50;54.20;;;;;;5050751;28;20221;-71
2022/04/26 07:42:33;;;;;;;2.47;2.28;;;19.50;54.20;;;;;;5051869;28;20194;-71
2022/04/26 07:44:59;;;;;;;2.13;1.98;;;19.50;54.20;;;;;;5051509;28;20257;-70
2022/04/26 07:47:26;;;;;;;2.40;2.17;;;19.60;54.10;;;;;;5067083;28;20776;-71
2022/04/26 07:49:53;;;;;;;2.65;2.45;;;19.60;54.10;;;;;;5067385;28;20198;-71
2022/04/26 07:52:21;;;;;;;2.03;1.80;;;19.60;54.10;;;;;;5050507;28;20293;-71
2022/04/26 07:54:47;;;;;;;2.22;2.03;;;19.60;54.10;;;;;;5050596;28;20178;-71
2022/04/26 07:57:13;;;;;;;2.13;1.90;;;19.60;54.20;;;;;;5050200;28;20190;-70
2022/04/26 07:59:40;;;;;;;1.90;1.80;;;19.60;54.20;;;;;;5033736;28;20302;-71
2022/04/26 08:02:07;;;;;;;1.65;1.55;;;19.60;54.20;;;;;;5049998;28;20217;-71
2022/04/26 08:04:33;;;;;;;2.10;2.00;;;19.60;54.20;;;;;;5050215;28;20183;-71
2022/04/26 08:06:59;;;;;;;2.30;1.88;;;19.50;54.20;;;;;;5050021;28;20185;-71
2022/04/26 08:09:25;;;;;;;2.65;2.10;;;19.50;54.20;;;;;;5050246;28;20174;-71
2022/04/26 08:11:51;;;;;;;2.30;1.77;;;19.60;54.20;;;;;;5051638;28;20198;-71
2022/04/26 08:14:17;;;;;;;1.85;1.70;;;19.60;54.20;;;;;;5050271;28;20193;-71
2022/04/26 08:16:42;;;;;;;4.22;2.08;;;19.50;54.10;;;;;;5051181;28;20183;-71
2022/04/26 08:19:11;;;;;;;2.03;1.80;;;19.60;54.20;;;;;;5046923;28;20228;-71
2022/04/26 08:21:38;;;;;;;2.17;1.98;;;19.60;54.20;;;;;;5067010;28;20214;-71
2022/04/26 08:29:33;;;;;;;2.05;1.90;;;19.60;54.20;;;;;;5051438;28;20183;-71
2022/04/26 08:31:59;;;;;;;2.35;2.15;;;19.60;54.20;;;;;;5051448;28;20194;-71
2022/04/26 08:34:24;;;;;;;2.35;2.08;;;19.50;54.10;;;;;;5070829;28;20186;-71
2022/04/26 08:36:50;;;;;;;2.03;1.92;;;19.50;54.10;;;;;;5058088;28;20178;-71
2022/04/26 08:39:16;;;;;;;2.05;1.85;;;19.60;54.20;;;;;;5054215;28;20229;-71
2022/04/26 08:41:42;;;;;;;2.15;1.95;;;19.50;54.10;;;;;;5070568;28;20239;-71
2022/04/26 08:44:10;;;;;;;2.10;2.00;;;19.60;54.20;;;;;;5070538;28;20233;-71
2022/04/26 08:52:07;;;;;;;2.25;2.05;;;19.50;54.10;;;;;;5070335;28;20201;-71
2022/04/26 08:54:35;;;;;;;2.15;2.05;;;19.60;54.20;;;;;;5055083;28;20174;-70
2022/04/26 08:57:02;;;;;;;2.15;2.05;;;19.60;54.20;;;;;;5070142;28;20187;-70
2022/04/26 08:59:28;;;;;;;2.85;2.28;;;19.60;54.10;;;;;;5054365;28;20187;-70
2022/04/26 09:02:15;;;;;;;2.35;2.15;;;19.60;54.10;;;;;;5055180;28;20276;-70
2022/04/26 09:04:42;;;;;;;2.22;2.05;;;19.50;54.10;;;;;;5070917;28;20304;-71
2022/04/26 09:07:26;;;;;;;2.40;2.10;;;19.60;54.20;;;;;;5053885;28;20171;-70
2022/04/26 09:10:09;;;;;;;2.20;2.00;;;19.60;54.20;;;;;;5054147;28;20185;-70
2022/04/26 09:13:12;;;;;;;1.80;1.70;;;19.60;54.20;;;;;;5053981;28;20217;-70
2022/04/26 09:15:46;;;;;;;2.47;2.28;;;19.60;54.20;;;;;;5054920;28;20194;-70
2022/04/26 09:18:26;;;;;;;2.40;2.30;;;19.60;54.10;;;;;;5070718;28;20270;-69
2022/04/26 09:21:17;;;;;;;2.00;1.90;;;19.60;54.20;;;;;;5053431;28;20350;-70
2022/04/26 09:23:43;;;;;;;2.17;1.90;;;19.60;54.10;;;;;;5053176;28;20198;-70
2022/04/26 09:26:13;;;;;;;1.98;1.88;;;19.60;54.20;;;;;;5070158;28;20224;-70
2022/04/26 09:28:49;;;;;;;2.65;2.08;;;19.60;54.10;;;;;;5070427;28;20205;-70
2022/04/26 09:31:26;;;;;;;2.03;1.80;;;19.60;54.10;;;;;;5053707;28;20246;-70
2022/04/26 09:33:57;;;;;;;1.90;1.80;;;19.60;54.10;;;;;;5053465;28;20658;-70
2022/04/26 09:36:32;;;;;;;2.15;1.95;;;19.60;54.10;;;;;;5069936;28;20198;-69
2022/04/26 09:39:00;;;;;;;2.30;2.10;;;19.60;54.10;;;;;;5053860;28;20224;-70
2022/04/26 09:41:28;;;;;;;2.38;2.17;;;19.60;54.10;;;;;;5069868;28;20229;-70
2022/04/26 09:44:01;;;;;;;2.70;2.50;;;19.60;54.10;;;;;;5054199;28;20185;-70
2022/04/26 09:46:47;;;;;;;2.70;2.50;;;19.60;54.10;;;;;;5052804;28;20179;-69
2022/04/26 09:49:18;;;;;;;2.60;2.40;;;19.60;54.10;;;;;;5069990;28;20204;-70
2022/04/26 09:51:46;;;;;;;2.28;2.08;;;19.60;54.10;;;;;;5053394;28;20253;-70
2022/04/26 09:54:11;;;;;;;2.17;1.98;;;19.60;54.10;;;;;;5053440;28;20179;-70
2022/04/26 09:56:39;;;;;;;2.08;1.85;;;19.60;54.10;;;;;;5052968;28;20178;-71
2022/04/26 09:59:05;;;;;;;2.35;1.92;;;19.60;54.10;;;;;;5053294;28;20183;-70
2022/04/26 10:01:43;;;;;;;2.25;2.05;;;19.70;54.20;;;;;;5052923;28;20624;-70
2022/04/26 10:04:17;;;;;;;2.10;1.92;;;19.70;54.20;;;;;;5052865;28;20680;-70
2022/04/26 10:06:46;;;;;;;2.03;1.90;;;19.70;54.10;;;;;;5069304;28;20182;-70
2022/04/26 10:09:13;;;;;;;2.10;1.90;;;19.70;54.20;;;;;;5037636;28;20210;-70
2022/04/26 10:11:39;;;;;;;2.30;2.00;;;19.70;54.20;;;;;;5049635;28;20203;-70
2022/04/26 10:14:08;;;;;;;2.50;2.30;;;19.70;54.20;;;;;;5032886;28;20237;-70
2022/04/26 10:16:34;;;;;;;2.53;2.30;;;19.70;54.20;;;;;;5058373;28;20278;-70
2022/04/26 10:19:12;;;;;;;2.53;2.10;;;19.70;54.20;;;;;;5052827;28;20265;-70
2022/04/26 10:21:40;;;;;;;2.28;2.10;;;19.70;54.10;;;;;;5052633;28;20612;-70
2022/04/26 10:24:06;;;;;;;1.85;1.75;;;19.70;54.20;;;;;;5052787;28;20186;-70
2022/04/26 10:26:35;;;;;;;2.17;2.08;;;19.70;54.20;;;;;;5052359;28;20356;-70
2022/04/26 10:29:06;;;;;;;2.10;1.90;;;19.70;54.10;;;;;;5069692;28;20178;-70
2022/04/26 10:31:35;;;;;;;2.08;1.98;;;19.70;54.20;;;;;;5069073;28;20217;-69
2022/04/26 10:34:27;;;;;;;2.20;2.00;;;19.70;54.10;;;;;;5048981;28;20270;-70
2022/04/26 10:37:08;;;;;;;2.60;1.98;;;19.70;54.20;;;;;;5032424;28;20278;-70
2022/04/26 10:39:42;;;;;;;2.03;1.92;;;19.70;54.10;;;;;;5032469;28;20184;-70
2022/04/26 10:42:18;;;;;;;2.20;2.10;;;19.80;54.20;;;;;;5033524;28;20207;-70
2022/04/26 10:44:46;;;;;;;2.13;1.92;;;19.80;54.20;;;;;;5032479;28;20193;-69
2022/04/26 10:47:14;;;;;;;2.63;2.30;;;19.80;54.10;;;;;;5015594;28;20183;-70
2022/04/26 10:49:40;;;;;;;2.00;1.90;;;19.80;54.10;;;;;;5032580;28;20193;-69
2022/04/26 10:52:16;;;;;;;2.10;1.90;;;19.80;54.10;;;;;;5033388;28;20210;-70
2022/04/26 10:54:48;;;;;;;2.15;1.90;;;19.80;54.10;;;;;;5032746;28;20183;-71
2022/04/26 10:57:19;;;;;;;4.05;2.00;;;19.70;54.20;;;;;;5032014;28;20554;-70
2022/04/26 10:59:56;;;;;;;2.20;2.03;;;19.70;54.20;;;;;;5015632;28;20187;-70
2022/04/26 11:02:25;;;;;;;3.45;2.03;;;19.70;54.20;;;;;;5069945;22;20309;-72
2022/04/26 11:05:13;;;;;;;1.83;1.73;;;19.70;54.20;;;;;;5052551;28;20717;-74
2022/04/26 11:07:42;;;;;;;1.83;1.73;;;19.70;54.20;;;;;;5034694;28;20714;-74
2022/04/26 11:10:11;;;;;;;2.03;1.83;;;19.70;54.20;;;;;;5018199;28;20186;-72
2022/04/26 11:12:39;;;;;;;2.97;2.53;;;19.70;54.20;;;;;;5034611;28;20213;-72
2022/04/26 11:15:14;;;;;;;3.40;2.17;;;19.70;54.20;;;;;;5017707;28;20190;-73
2022/04/26 11:17:41;;;;;;;2.22;2.10;;;19.70;54.20;;;;;;5017763;28;20190;-72
2022/04/26 11:20:14;;;;;;;2.40;2.20;;;19.70;54.20;;;;;;5034427;28;20206;-72
2022/04/26 11:27:59;;;;;;;1.77;1.67;;;19.70;54.20;;;;;;5052141;28;20198;-72
2022/04/26 11:28:50;;;;;;;2.38;1.98;;;19.70;54.20;;;;;;5029972;28;20278;-74
2022/04/26 11:31:15;;;;;;;1.67;1.58;;;19.70;54.20;;;;;;5029843;28;20213;-73
2022/04/26 11:33:49;;;;;;;2.40;1.85;;;19.70;54.20;;;;;;5022786;28;20199;-73
2022/04/26 11:36:16;;;;;;;2.05;1.80;;;19.70;54.20;;;;;;5051309;28;20187;-72
2022/04/26 11:38:41;;;;;;;4.03;1.80;;;19.80;54.30;;;;;;5016761;28;20186;-73
2022/04/26 11:41:09;;;;;;;2.50;2.05;;;19.80;54.50;;;;;;5033310;28;20218;-73
2022/04/26 11:43:36;;;;;;;1.83;1.70;;;19.80;54.40;;;;;;5017697;28;20186;-73
2022/04/26 11:46:04;;;;;;;2.25;2.00;;;19.80;54.40;;;;;;5017760;28;20182;-73
2022/04/26 11:48:34;;;;;;;2.17;1.98;;;19.80;54.40;;;;;;5034413;28;20189;-72
2022/04/26 11:51:02;;;;;;;2.63;2.42;;;19.80;54.40;;;;;;5018082;28;20320;-72
2022/04/26 11:53:36;;;;;;;1.60;1.50;;;19.80;54.30;;;;;;5034373;28;20175;-72
2022/04/26 11:56:05;;;;;;;1.88;1.73;;;19.80;54.30;;;;;;5017195;28;20186;-73
2022/04/26 11:58:32;;;;;;;2.35;1.67;;;19.80;54.40;;;;;;5033709;28;20175;-72
2022/04/26 12:01:16;;;;;;;2.30;1.80;;;19.70;54.30;;;;;;5034074;28;20199;-72
2022/04/26 12:03:52;;;;;;;2.15;1.70;;;19.70;54.40;;;;;;5017167;28;20190;-72
2022/04/26 12:06:29;;;;;;;2.75;1.73;;;19.80;54.30;;;;;;5033327;28;20174;-72
2022/04/26 12:09:04;;;;;;;2.28;1.90;;;19.80;54.30;;;;;;5051276;28;20863;-72
2022/04/26 12:11:41;;;;;;;1.90;1.80;;;19.70;54.20;;;;;;5034014;28;20599;-72
2022/04/26 12:14:14;;;;;;;2.15;1.70;;;19.80;54.30;;;;;;5017747;28;20181;-73
2022/04/26 12:16:49;;;;;;;1.98;1.85;;;19.80;54.30;;;;;;5033624;28;20205;-72
2022/04/26 12:19:16;;;;;;;2.45;1.90;;;19.80;54.30;;;;;;5029201;28;20186;-72
2022/04/26 12:21:47;;;;;;;1.77;1.67;;;19.80;54.30;;;;;;5014131;28;20215;-72
2022/04/26 12:24:29;;;;;;;1.92;1.75;;;19.80;54.30;;;;;;5014349;28;20207;-72
2022/04/26 12:27:11;;;;;;;2.00;1.90;;;19.80;54.30;;;;;;5013693;28;20184;-72
2022/04/26 12:29:37;;;;;;;2.03;1.77;;;19.80;54.30;;;;;;5014261;28;20187;-72
2022/04/26 12:32:10;;;;;;;2.03;1.85;;;19.80;54.30;;;;;;5027203;28;20237;-72
2022/04/26 12:34:57;;;;;;;2.05;1.85;;;19.80;54.30;;;;;;5017183;28;20182;-72
2022/04/26 12:37:29;;;;;;;2.10;1.70;;;19.80;54.20;;;;;;5051792;28;20631;-72
2022/04/26 12:40:06;;;;;;;1.70;1.60;;;19.80;54.20;;;;;;5051940;28;20270;-72
2022/04/26 12:42:39;;;;;;;2.40;1.98;;;19.80;54.20;;;;;;5017634;28;20285;-72
2022/04/26 12:45:24;;;;;;;1.75;1.65;;;19.80;54.10;;;;;;5017505;28;20243;-72
2022/04/26 12:51:21;;;;;;;2.03;1.92;;;19.90;54.30;;;;;;5051635;28;20675;-72
2022/04/26 12:53:50;;;;;;;2.03;1.80;;;19.80;54.20;;;;;;5050708;28;20175;-72
2022/04/26 12:56:18;;;;;;;1.75;1.65;;;19.80;54.20;;;;;;5033926;28;20190;-71
2022/04/26 12:58:47;;;;;;;1.77;1.67;;;19.80;54.10;;;;;;5034228;28;20193;-71
2022/04/26 13:01:14;;;;;;;1.90;1.80;;;19.80;54.20;;;;;;5051571;28;20218;-72
2022/04/26 13:03:42;;;;;;;1.80;1.70;;;19.80;54.20;;;;;;5033722;28;20229;-70
2022/04/26 13:06:17;;;;;;;1.60;1.50;;;19.80;54.20;;;;;;5017300;28;20189;-71
2022/04/26 13:08:48;;;;;;;2.25;1.60;;;19.90;54.20;;;;;;5017405;28;20235;-71
2022/04/26 13:11:18;;;;;;;2.53;1.75;;;19.90;54.10;;;;;;5017501;28;20233;-71
2022/04/26 13:13:46;;;;;;;1.70;1.60;;;19.90;54.10;;;;;;5034131;28;20210;-72
2022/04/26 13:16:12;;;;;;;1.42;1.30;;;19.90;54.10;;;;;;5033649;28;20246;-71
2022/04/26 13:18:38;;;;;;;1.77;1.67;;;19.90;54.20;;;;;;5018803;28;20194;-71
2022/04/26 13:21:05;;;;;;;1.98;1.58;;;19.90;54.10;;;;;;5054448;28;20244;-71
2022/04/26 13:23:34;;;;;;;1.67;1.58;;;19.90;54.10;;;;;;5020447;28;20270;-71
2022/04/26 13:26:00;;;;;;;1.70;1.60;;;19.90;54.10;;;;;;5036918;28;20639;-71
2022/04/26 13:28:28;;;;;;;1.90;1.80;;;19.90;54.00;;;;;;5036094;28;20239;-71
2022/04/26 13:30:53;;;;;;;2.03;1.60;;;19.90;54.10;;;;;;5020293;28;20194;-71
2022/04/26 13:33:20;;;;;;;2.72;1.50;;;19.90;54.00;;;;;;5019722;28;20178;-71
2022/04/26 13:35:47;;;;;;;1.50;1.40;;;19.90;54.10;;;;;;5020509;28;20182;-71
2022/04/26 13:38:14;;;;;;;2.33;1.60;;;19.90;54.10;;;;;;5036377;28;20221;-72
2022/04/26 13:40:42;;;;;;;2.53;1.48;;;19.90;54.00;;;;;;5035703;28;20216;-71
2022/04/26 13:43:09;;;;;;;1.50;1.40;;;19.80;54.00;;;;;;5018844;28;20277;-71
2022/04/26 13:45:35;;;;;;;1.65;1.55;;;19.80;54.00;;;;;;5036154;28;20194;-71
2022/04/26 13:48:08;;;;;;;2.08;1.70;;;19.90;54.00;;;;;;5054364;28;20179;-71
2022/04/26 13:50:35;;;;;;;1.65;1.55;;;19.80;53.80;;;;;;5054498;28;20240;-71
2022/04/26 13:53:01;;;;;;;1.55;1.40;;;19.90;54.00;;;;;;5036606;28;20237;-72
2022/04/26 13:55:27;;;;;;;1.83;1.67;;;19.90;54.10;;;;;;5036476;28;20178;-74
2022/04/26 13:57:54;;;;;;;1.70;1.60;;;19.90;54.00;;;;;;5020149;28;20178;-72
2022/04/26 14:00:21;;;;;;;1.70;1.60;;;19.90;54.00;;;;;;5036176;28;20229;-72
2022/04/26 14:02:48;;;;;;;1.80;1.70;;;19.90;54.50;;;;;;5019683;28;20271;-71
2022/04/26 14:05:20;;;;;;;1.60;1.50;;;19.90;54.00;;;;;;5036035;28;20182;-71
2022/04/26 14:07:46;;;;;;;1.50;1.40;;;19.90;53.90;;;;;;5035928;28;20183;-73
2022/04/26 14:10:14;;;;;;;1.80;1.70;;;19.90;54.00;;;;;;5019488;28;20186;-72
2022/04/26 14:12:39;;;;;;;1.73;1.63;;;19.90;54.60;;;;;;5035712;28;20217;-71
2022/04/26 14:23:20;;;;;;;1.60;1.50;;;19.90;54.10;;;;;;5035768;28;20190;-68
2022/04/26 14:25:46;;;;;;;1.63;1.40;;;19.90;54.10;;;;;;5035323;28;20233;-68
2022/04/26 14:28:12;;;;;;;1.40;1.30;;;19.90;54.00;;;;;;5035503;28;20187;-69
2022/04/26 14:30:38;;;;;;;1.52;1.42;;;19.90;54.00;;;;;;5017541;28;20186;-67
2022/04/26 14:33:04;;;;;;;1.83;1.60;;;19.90;54.10;;;;;;5018469;28;20210;-69
2022/04/26 14:35:32;;;;;;;3.50;1.50;;;19.90;54.20;;;;;;5035421;28;20174;-68
2022/04/26 14:37:59;;;;;;;4.07;1.88;;;19.90;54.40;;;;;;5053589;28;20273;-69
2022/04/26 14:40:25;;;;;;;1.73;1.33;;;19.90;54.40;;;;;;5036123;28;20213;-68
2022/04/26 14:42:51;;;;;;;1.92;1.60;;;19.90;54.40;;;;;;5036169;28;20198;-68
2022/04/26 14:45:17;;;;;;;1.63;1.50;;;19.90;54.50;;;;;;5035395;28;20247;-68
2022/04/26 14:47:42;;;;;;;1.67;1.58;;;19.90;54.40;;;;;;5034961;28;20187;-69
2022/04/26 14:50:09;;;;;;;2.90;1.50;;;19.90;54.40;;;;;;5051250;28;20229;-68
2022/04/26 14:52:36;;;;;;;1.38;1.23;;;19.90;54.40;;;;;;5051098;28;20324;-69
2022/04/26 14:55:08;;;;;;;1.77;1.50;;;19.90;54.50;;;;;;5016738;28;20186;-69
2022/04/26 14:57:36;;;;;;;3.35;1.30;;;19.90;54.40;;;;;;5033362;28;20244;-69
2022/04/26 15:00:05;;;;;;;2.10;1.33;;;19.90;54.40;;;;;;5033264;28;20283;-69
2022/04/26 15:02:38;;;;;;;1.55;1.45;;;19.90;54.50;;;;;;5050763;28;20301;-69
2022/04/26 15:05:07;;;;;;;1.75;1.60;;;19.90;54.60;;;;;;5033028;28;20538;-68
2022/04/26 15:09:42;;;;;;;1.60;1.45;;;19.90;54.50;;;;;;5032803;28;20186;-72
2022/04/26 15:10:19;;;;;;;1.60;1.35;;;19.90;54.50;;;;;;5032929;28;20189;-69
2022/04/26 15:18:21;;;;;;;2.47;1.60;;;19.90;54.40;;;;;;5032989;28;20213;-70
2022/04/26 15:20:52;;;;;;;2.20;1.70;;;19.90;54.40;;;;;;5032666;28;20206;-69
2022/04/26 15:23:20;;;;;;;1.60;1.50;;;19.90;54.40;;;;;;5032257;28;20179;-70
2022/04/26 15:25:50;;;;;;;1.48;1.38;;;19.90;54.40;;;;;;5032372;28;20186;-69
2022/04/26 15:28:18;;;;;;;1.92;1.40;;;19.90;54.40;;;;;;5016335;28;20632;-69
2022/04/26 15:30:45;;;;;;;2.25;1.40;;;19.90;54.90;;;;;;5032581;28;20209;-69
2022/04/26 15:33:11;;;;;;;1.85;1.40;;;19.90;54.40;;;;;;5049196;28;20182;-69
2022/04/26 15:35:38;;;;;;;1.92;1.30;;;19.90;54.40;;;;;;5050350;28;20186;-69
2022/04/26 15:38:07;;;;;;;4.05;1.70;;;19.90;54.40;;;;;;5032586;28;20183;-69
2022/04/26 15:40:34;;;;;;;3.67;1.80;;;19.90;54.40;;;;;;5032068;28;20257;-71
2022/04/26 15:43:00;;;;;;;2.40;1.55;;;19.90;54.30;;;;;;5032320;28;20202;-69
2022/04/26 15:45:26;;;;;;;1.80;1.40;;;19.90;54.40;;;;;;5032446;28;20187;-69
2022/04/26 15:47:51;;;;;;;4.03;1.48;;;19.90;54.40;;;;;;5015800;28;20247;-69
2022/04/26 15:50:18;;;;;;;2.65;1.65;;;19.90;54.40;;;;;;5032523;28;20259;-69
2022/04/26 15:52:44;;;;;;;1.83;1.52;;;19.90;54.30;;;;;;5034563;28;20206;-68
2022/04/26 15:55:09;;;;;;;2.60;1.67;;;19.90;54.30;;;;;;5052471;28;20174;-69
2022/04/26 15:57:36;;;;;;;1.73;1.63;;;19.90;54.30;;;;;;5034269;28;20201;-69
2022/04/26 16:00:04;;;;;;;1.60;1.50;;;19.90;54.20;;;;;;5034718;28;20206;-71
2022/04/26 16:02:34;;;;;;;1.70;1.48;;;19.90;54.30;;;;;;5052266;28;20225;-69
2022/04/26 16:05:00;;;;;;;2.17;1.60;;;19.90;54.40;;;;;;5018124;28;20178;-69
2022/04/26 16:07:25;;;;;;;2.33;1.80;;;19.90;54.40;;;;;;5018065;28;20201;-69
2022/04/26 16:20:48;;;;;;;1.70;1.60;;;19.90;54.40;;;;;;5034051;28;20221;-68
2022/04/26 16:23:13;;;;;;;1.40;1.30;;;19.80;54.30;;;;;;5034514;28;20186;-68
2022/04/26 16:25:40;;;;;;;2.50;2.22;;;19.80;54.30;;;;;;5018068;28;20183;-69
2022/04/26 16:28:05;;;;;;;2.83;2.53;;;19.80;54.30;;;;;;5034042;28;20206;-68
2022/04/26 16:30:33;;;;;;;2.80;2.10;;;19.80;54.30;;;;;;5034442;28;20203;-69
2022/04/26 16:33:07;;;;;;;2.35;2.13;;;19.80;54.30;;;;;;5017667;28;20590;-68
2022/04/26 16:35:34;;;;;;;2.42;2.15;;;19.80;54.30;;;;;;5034223;28;20192;-69
2022/04/26 16:38:01;;;;;;;2.28;2.08;;;19.80;54.30;;;;;;5051759;28;20182;-69
2022/04/26 16:40:28;;;;;;;1.92;1.70;;;19.80;54.30;;;;;;5017742;28;20581;-69
2022/04/26 16:42:54;;;;;;;1.95;1.85;;;19.80;54.30;;;;;;5051821;28;20190;-68
2022/04/26 16:45:20;;;;;;;1.85;1.67;;;19.80;54.30;;;;;;5017694;28;20527;-69
2022/04/26 16:47:46;;;;;;;1.80;1.70;;;19.80;54.30;;;;;;5017527;28;20179;-69
2022/04/26 16:50:12;;;;;;;2.10;1.60;;;19.80;54.20;;;;;;5034095;28;20190;-70
2022/04/26 16:52:39;;;;;;;2.15;1.80;;;19.80;54.20;;;;;;5034763;28;20206;-69
2022/04/26 16:55:05;;;;;;;1.98;1.80;;;19.80;54.20;;;;;;5021142;28;20705;-69
2022/04/26 16:57:31;;;;;;;1.70;1.60;;;19.80;54.20;;;;;;5021253;28;20244;-69
2022/04/26 16:59:58;;;;;;;2.15;1.58;;;19.80;54.20;;;;;;5021839;28;20186;-69
2022/04/26 17:02:26;;;;;;;2.38;1.60;;;19.80;54.20;;;;;;5051880;23;20259;-70
2022/04/26 17:04:52;;;;;;;2.22;1.85;;;19.80;54.20;;;;;;5053725;28;20197;-70
2022/04/26 17:07:18;;;;;;;1.80;1.70;;;19.80;54.30;;;;;;5054981;28;20217;-70
2022/04/26 17:09:44;;;;;;;2.25;1.92;;;19.80;54.20;;;;;;5021054;28;20269;-70
2022/04/26 17:12:12;;;;;;;1.88;1.77;;;19.80;54.30;;;;;;5037497;28;20270;-70
2022/04/26 17:14:39;;;;;;;2.83;1.88;;;19.80;54.30;;;;;;5037266;28;20286;-71
2022/04/26 17:17:05;;;;;;;1.95;1.77;;;19.80;54.20;;;;;;5055172;28;20650;-70
2022/04/26 17:19:31;;;;;;;2.17;2.08;;;19.80;54.20;;;;;;5053863;28;20178;-71
2022/04/26 17:21:59;;;;;;;2.50;2.08;;;19.80;54.20;;;;;;5054026;28;20291;-71